Time;durP1;ratioP1;P1;durP2;ratioP2;P2;SDS_P1;SDS_P2;PMS_P1;PMS_P2;Temp;Humidity;BMP_temperature;BMP_pressure;BME280_temperature;BME280_humidity;BME280_pressure;Samples;Min_cycle;Max_cycle;Signal;HPM_P1;HPM_P2
2020/12/14 00:00:47;;;;;;;25.58;15.77;;;;;;;;;;5033562;28;20029;-66
2020/12/14 00:03:13;;;;;;;21.80;12.98;;;;;;;;;;5033707;28;20025;-66
2020/12/14 00:05:39;;;;;;;19.35;12.60;;;;;;;;;;5033836;28;20099;-66
2020/12/14 00:08:05;;;;;;;24.63;13.02;;;;;;;;;;5033866;28;20021;-67
2020/12/14 00:10:31;;;;;;;24.15;13.95;;;;;;;;;;5033741;28;20426;-66
2020/12/14 00:12:57;;;;;;;24.38;14.32;;;;;;;;;;5033391;28;20080;-66
2020/12/14 00:15:23;;;;;;;21.75;13.15;;;;;;;;;;5033361;28;20037;-66
2020/12/14 00:17:50;;;;;;;21.35;12.63;;;;;;;;;;5033268;28;20112;-66
2020/12/14 00:20:16;;;;;;;22.55;12.73;;;;;;;;;;5033351;28;20165;-66
2020/12/14 00:22:42;;;;;;;22.33;12.68;;;;;;;;;;5033341;28;20041;-66
2020/12/14 00:25:08;;;;;;;21.25;12.25;;;;;;;;;;5033514;28;20054;-66
2020/12/14 00:27:34;;;;;;;21.33;12.55;;;;;;;;;;5033254;28;20112;-66
2020/12/14 00:30:00;;;;;;;21.88;12.25;;;;;;;;;;5032860;28;20419;-66
2020/12/14 00:32:27;;;;;;;29.13;15.93;;;;;;;;;;5033403;28;20510;-66
2020/12/14 00:34:53;;;;;;;33.17;20.38;;;;;;;;;;5031923;28;20037;-66
2020/12/14 00:37:20;;;;;;;27.73;18.25;;;;;;;;;;5033451;28;20381;-66
2020/12/14 00:39:46;;;;;;;24.38;15.85;;;;;;;;;;5032978;28;20474;-66
2020/12/14 00:42:12;;;;;;;22.70;13.52;;;;;;;;;;5033361;28;20026;-66
2020/12/14 00:44:38;;;;;;;18.52;11.02;;;;;;;;;;5032920;28;20037;-66
2020/12/14 00:47:04;;;;;;;17.63;10.73;;;;;;;;;;5033288;28;20032;-66
2020/12/14 00:49:30;;;;;;;18.27;9.48;;;;;;;;;;5033029;28;20381;-66
2020/12/14 00:51:57;;;;;;;15.32;9.55;;;;;;;;;;5033392;28;20072;-66
2020/12/14 00:54:24;;;;;;;14.85;9.55;;;;;;;;;;5033153;28;20034;-66
2020/12/14 00:56:50;;;;;;;14.63;9.38;;;;;;;;;;5032974;28;20028;-66
2020/12/14 00:59:16;;;;;;;16.15;9.60;;;;;;;;;;5032902;28;20047;-66
2020/12/14 01:01:42;;;;;;;15.52;9.45;;;;;;;;;;5033168;28;20021;-66
2020/12/14 01:04:08;;;;;;;15.90;9.38;;;;;;;;;;5033288;28;20447;-66
2020/12/14 01:06:34;;;;;;;12.88;8.18;;;;;;;;;;5033059;28;20040;-66
2020/12/14 01:09:00;;;;;;;13.13;8.32;;;;;;;;;;5032926;28;20034;-66
2020/12/14 01:11:27;;;;;;;13.60;9.10;;;;;;;;;;5032853;28;20540;-66
2020/12/14 01:13:54;;;;;;;13.20;8.77;;;;;;;;;;5032742;28;20060;-66
2020/12/14 01:16:20;;;;;;;14.02;9.07;;;;;;;;;;5032717;28;20013;-66
2020/12/14 01:18:46;;;;;;;13.13;8.88;;;;;;;;;;5032841;28;20037;-66
2020/12/14 01:21:12;;;;;;;13.27;7.28;;;;;;;;;;5032542;28;20041;-66
2020/12/14 01:23:39;;;;;;;13.82;8.45;;;;;;;;;;5032703;28;20485;-66
2020/12/14 01:26:05;;;;;;;15.02;8.85;;;;;;;;;;5032758;28;20029;-66
2020/12/14 01:28:31;;;;;;;12.15;8.00;;;;;;;;;;5033004;28;20022;-66
2020/12/14 01:30:57;;;;;;;13.77;8.13;;;;;;;;;;5032854;28;20026;-66
2020/12/14 01:33:23;;;;;;;12.15;7.40;;;;;;;;;;5032972;28;20433;-66
2020/12/14 01:35:49;;;;;;;14.40;8.25;;;;;;;;;;5032573;28;20478;-66
2020/12/14 01:38:15;;;;;;;13.05;7.60;;;;;;;;;;5032732;28;20065;-66
2020/12/14 01:40:41;;;;;;;12.05;7.75;;;;;;;;;;5032596;28;20029;-66
2020/12/14 01:43:08;;;;;;;12.93;8.07;;;;;;;;;;5036194;28;20105;-65
2020/12/14 01:45:34;;;;;;;14.45;8.82;;;;;;;;;;5036107;28;20025;-66
2020/12/14 01:48:02;;;;;;;13.52;8.40;;;;;;;;;;5036183;28;20570;-66
2020/12/14 01:50:29;;;;;;;16.15;9.38;;;;;;;;;;5035978;28;20030;-66
2020/12/14 01:52:57;;;;;;;15.07;9.10;;;;;;;;;;5036104;28;20080;-66
2020/12/14 01:55:24;;;;;;;16.30;9.57;;;;;;;;;;5035912;28;20079;-66
2020/12/14 01:57:50;;;;;;;17.58;10.00;;;;;;;;;;5035904;28;20108;-66
2020/12/14 02:00:16;;;;;;;15.18;9.35;;;;;;;;;;5036339;28;20021;-66
2020/12/14 02:02:42;;;;;;;14.57;9.02;;;;;;;;;;5035976;28;20025;-66
2020/12/14 02:05:08;;;;;;;15.52;10.07;;;;;;;;;;5035895;28;20112;-66
2020/12/14 02:07:35;;;;;;;19.67;9.38;;;;;;;;;;5035770;28;20041;-66
2020/12/14 02:10:01;;;;;;;19.35;10.75;;;;;;;;;;5036140;28;20047;-66
2020/12/14 02:12:28;;;;;;;16.80;10.50;;;;;;;;;;5036030;28;20048;-66
2020/12/14 02:14:55;;;;;;;17.67;10.48;;;;;;;;;;5035884;28;20022;-66
2020/12/14 02:17:21;;;;;;;16.42;9.30;;;;;;;;;;5035562;28;20026;-66
2020/12/14 02:19:48;;;;;;;15.27;9.52;;;;;;;;;;5035531;28;20509;-66
2020/12/14 02:22:18;;;;;;;17.85;9.73;;;;;;;;;;5035609;28;20041;-66
2020/12/14 02:24:47;;;;;;;17.45;10.15;;;;;;;;;;5035442;28;20017;-66
2020/12/14 02:27:14;;;;;;;13.48;9.15;;;;;;;;;;5035349;28;20017;-66
2020/12/14 02:29:42;;;;;;;16.63;9.80;;;;;;;;;;5035735;28;20359;-67
2020/12/14 02:32:11;;;;;;;14.75;9.40;;;;;;;;;;5035209;28;20079;-67
2020/12/14 02:34:39;;;;;;;16.20;9.77;;;;;;;;;;5035399;28;20522;-66
2020/12/14 02:37:07;;;;;;;16.48;9.95;;;;;;;;;;5035419;28;20030;-67
2020/12/14 02:39:33;;;;;;;18.08;9.75;;;;;;;;;;5035207;28;20048;-66
2020/12/14 02:42:00;;;;;;;18.98;10.02;;;;;;;;;;5035555;28;20466;-66
2020/12/14 02:44:26;;;;;;;16.30;9.45;;;;;;;;;;5035312;28;20029;-66
2020/12/14 02:46:53;;;;;;;17.55;9.82;;;;;;;;;;5035052;28;20474;-66
2020/12/14 02:49:19;;;;;;;16.15;9.65;;;;;;;;;;5035208;28;20102;-66
2020/12/14 02:51:45;;;;;;;17.95;9.93;;;;;;;;;;5035204;28;20033;-66
2020/12/14 02:54:12;;;;;;;14.85;9.77;;;;;;;;;;5034511;28;20033;-66
2020/12/14 02:56:41;;;;;;;14.82;9.25;;;;;;;;;;5034019;28;20112;-67
2020/12/14 02:59:07;;;;;;;16.23;9.68;;;;;;;;;;5035060;28;20041;-67
2020/12/14 03:01:33;;;;;;;15.10;8.82;;;;;;;;;;5034983;28;20105;-67
2020/12/14 03:03:59;;;;;;;17.25;9.07;;;;;;;;;;5034921;28;20419;-67
2020/12/14 03:06:25;;;;;;;15.10;8.90;;;;;;;;;;5034722;28;20482;-66
2020/12/14 03:08:51;;;;;;;14.35;8.32;;;;;;;;;;5034754;28;20022;-66
2020/12/14 03:11:17;;;;;;;15.82;8.93;;;;;;;;;;5034690;28;20021;-66
2020/12/14 03:13:44;;;;;;;14.52;8.65;;;;;;;;;;5034717;28;20083;-67
2020/12/14 03:16:10;;;;;;;12.70;8.10;;;;;;;;;;5034492;28;20029;-67
2020/12/14 03:18:36;;;;;;;14.85;8.95;;;;;;;;;;5034483;28;20041;-67
2020/12/14 03:21:05;;;;;;;15.35;8.02;;;;;;;;;;5034094;28;20054;-67
2020/12/14 03:23:32;;;;;;;16.38;7.88;;;;;;;;;;5034315;28;20493;-67
2020/12/14 03:25:58;;;;;;;12.48;7.43;;;;;;;;;;5034342;28;20390;-67
2020/12/14 03:28:24;;;;;;;11.10;7.50;;;;;;;;;;5034356;28;20082;-67
2020/12/14 03:30:50;;;;;;;13.98;8.02;;;;;;;;;;5034295;28;20025;-67
2020/12/14 03:33:16;;;;;;;13.43;8.10;;;;;;;;;;5034089;28;20029;-67
2020/12/14 03:35:42;;;;;;;16.13;9.68;;;;;;;;;;5034208;28;20024;-67
2020/12/14 03:38:08;;;;;;;15.55;10.00;;;;;;;;;;5034290;28;20382;-67
2020/12/14 03:40:34;;;;;;;16.48;9.65;;;;;;;;;;5034418;28;20029;-67
2020/12/14 03:43:01;;;;;;;14.63;9.23;;;;;;;;;;5033966;28;20475;-67
2020/12/14 03:45:27;;;;;;;13.02;8.63;;;;;;;;;;5033919;28;20025;-66
2020/12/14 03:47:53;;;;;;;14.93;9.18;;;;;;;;;;5034085;28;20104;-67
2020/12/14 03:50:19;;;;;;;15.48;8.45;;;;;;;;;;5034217;28;20483;-66
2020/12/14 03:52:45;;;;;;;13.77;8.90;;;;;;;;;;5033827;28;20104;-66
2020/12/14 03:55:13;;;;;;;14.27;8.07;;;;;;;;;;5033749;28;20112;-66
2020/12/14 03:57:39;;;;;;;14.05;7.65;;;;;;;;;;5033636;28;20108;-66
2020/12/14 04:00:05;;;;;;;14.27;8.02;;;;;;;;;;5033567;28;20060;-66
2020/12/14 04:02:31;;;;;;;12.20;7.85;;;;;;;;;;5033688;28;20026;-67
2020/12/14 04:04:57;;;;;;;16.48;8.88;;;;;;;;;;5033693;28;20096;-67
2020/12/14 04:07:23;;;;;;;13.45;8.30;;;;;;;;;;5033929;28;20053;-67
2020/12/14 04:09:49;;;;;;;12.45;7.93;;;;;;;;;;5033910;28;20025;-67
2020/12/14 04:12:16;;;;;;;16.73;8.60;;;;;;;;;;5033628;28;20029;-67
2020/12/14 04:14:42;;;;;;;14.25;8.68;;;;;;;;;;5033445;28;20482;-67
2020/12/14 04:17:08;;;;;;;17.05;8.48;;;;;;;;;;5033438;28;20485;-67
2020/12/14 04:19:34;;;;;;;14.15;8.57;;;;;;;;;;5033399;28;20526;-67
2020/12/14 04:22:00;;;;;;;14.90;8.05;;;;;;;;;;5033281;28;20045;-66
2020/12/14 04:24:27;;;;;;;15.35;8.10;;;;;;;;;;5032124;28;20390;-67
2020/12/14 04:26:54;;;;;;;13.77;8.45;;;;;;;;;;5033284;28;20030;-66
2020/12/14 04:29:20;;;;;;;14.30;8.23;;;;;;;;;;5033546;28;20021;-66
2020/12/14 04:31:46;;;;;;;14.90;7.43;;;;;;;;;;5033229;28;20100;-67
2020/12/14 04:34:12;;;;;;;13.43;7.18;;;;;;;;;;5033180;28;20036;-66
2020/12/14 04:36:43;;;;;;;14.68;6.68;;;;;;;;;;5033223;28;20026;-66
2020/12/14 04:39:09;;;;;;;13.73;7.03;;;;;;;;;;5033372;28;20410;-66
2020/12/14 04:41:35;;;;;;;12.90;7.03;;;;;;;;;;5033207;28;20370;-66
2020/12/14 04:44:01;;;;;;;12.15;7.45;;;;;;;;;;5033015;28;20041;-66
2020/12/14 04:46:30;;;;;;;13.23;7.57;;;;;;;;;;5033129;28;20028;-66
2020/12/14 04:48:56;;;;;;;10.52;6.82;;;;;;;;;;5033066;28;20025;-66
2020/12/14 04:51:22;;;;;;;12.68;7.38;;;;;;;;;;5033086;28;20100;-66
2020/12/14 04:53:49;;;;;;;10.98;6.65;;;;;;;;;;5032904;28;20104;-66
2020/12/14 04:56:18;;;;;;;12.25;6.65;;;;;;;;;;5032888;28;20471;-66
2020/12/14 04:58:44;;;;;;;12.50;7.05;;;;;;;;;;5033266;28;20493;-67
2020/12/14 05:01:11;;;;;;;11.70;6.90;;;;;;;;;;5032922;28;20478;-66
2020/12/14 05:03:37;;;;;;;12.07;6.97;;;;;;;;;;5033039;28;20086;-67
2020/12/14 05:06:03;;;;;;;11.82;7.22;;;;;;;;;;5032986;28;20136;-66
2020/12/14 05:08:29;;;;;;;11.88;6.53;;;;;;;;;;5032790;28;20021;-66
2020/12/14 05:10:56;;;;;;;12.88;7.10;;;;;;;;;;5031711;28;20029;-66
2020/12/14 05:13:26;;;;;;;12.57;6.85;;;;;;;;;;5033096;28;20096;-66
2020/12/14 05:15:52;;;;;;;14.38;7.30;;;;;;;;;;5033173;28;20029;-66
2020/12/14 05:18:22;;;;;;;14.95;7.25;;;;;;;;;;5036595;28;20033;-66
2020/12/14 05:20:58;;;;;;;11.95;7.05;;;;;;;;;;5036436;28;20057;-66
2020/12/14 05:23:24;;;;;;;12.27;7.10;;;;;;;;;;5036473;28;20056;-66
2020/12/14 05:25:50;;;;;;;12.38;7.75;;;;;;;;;;5036759;28;20026;-66
2020/12/14 05:28:16;;;;;;;14.73;7.82;;;;;;;;;;5036480;28;20125;-66
2020/12/14 05:30:44;;;;;;;15.35;7.55;;;;;;;;;;5035326;28;20060;-66
2020/12/14 05:33:14;;;;;;;12.98;7.47;;;;;;;;;;5036369;28;20478;-66
2020/12/14 05:35:41;;;;;;;12.57;7.68;;;;;;;;;;5036450;28;20036;-66
2020/12/14 05:38:15;;;;;;;21.70;7.88;;;;;;;;;;5036618;28;20446;-67
2020/12/14 05:40:42;;;;;;;11.02;6.97;;;;;;;;;;5036648;28;20484;-66
2020/12/14 05:43:12;;;;;;;11.07;6.97;;;;;;;;;;5036297;28;20040;-67
2020/12/14 05:45:39;;;;;;;13.65;7.82;;;;;;;;;;5036247;28;20029;-67
2020/12/14 05:48:05;;;;;;;15.35;7.65;;;;;;;;;;5036553;28;20033;-67
2020/12/14 05:50:31;;;;;;;14.45;7.15;;;;;;;;;;5036224;28;20152;-67
2020/12/14 05:53:02;;;;;;;13.88;7.82;;;;;;;;;;5036203;28;20028;-67
2020/12/14 05:55:29;;;;;;;13.93;8.98;;;;;;;;;;5035884;28;20025;-67
2020/12/14 05:57:58;;;;;;;12.77;7.35;;;;;;;;;;5036341;28;20363;-68
2020/12/14 06:00:26;;;;;;;12.60;6.80;;;;;;;;;;5035928;28;20033;-67
2020/12/14 06:02:52;;;;;;;57.47;35.45;;;;;;;;;;5035965;28;20045;-68
2020/12/14 06:05:20;;;;;;;49.97;30.42;;;;;;;;;;5035895;28;20076;-67
2020/12/14 06:07:53;;;;;;;28.52;19.52;;;;;;;;;;5035947;28;20037;-68
2020/12/14 06:10:19;;;;;;;15.07;8.27;;;;;;;;;;5035783;28;20106;-67
2020/12/14 06:12:46;;;;;;;17.25;8.63;;;;;;;;;;5036033;28;20116;-67
2020/12/14 06:15:15;;;;;;;14.32;9.18;;;;;;;;;;5035553;28;20360;-67
2020/12/14 06:17:42;;;;;;;28.52;15.80;;;;;;;;;;5035706;28;20136;-67
2020/12/14 06:20:13;;;;;;;25.23;13.15;;;;;;;;;;5035260;28;20037;-67
2020/12/14 06:22:50;;;;;;;16.15;8.25;;;;;;;;;;5035594;28;20120;-67
2020/12/14 06:25:17;;;;;;;13.50;7.88;;;;;;;;;;5035722;28;20171;-67
2020/12/14 06:27:43;;;;;;;13.27;7.65;;;;;;;;;;5034973;28;20028;-68
2020/12/14 06:30:36;;;;;;;15.98;7.97;;;;;;;;;;5035391;28;20475;-68
2020/12/14 06:33:08;;;;;;;19.67;9.07;;;;;;;;;;5033510;28;20033;-68
2020/12/14 06:35:42;;;;;;;25.65;12.18;;;;;;;;;;5035535;28;20052;-67
2020/12/14 06:38:08;;;;;;;26.10;13.23;;;;;;;;;;5035113;28;20052;-67
2020/12/14 06:40:54;;;;;;;28.38;12.18;;;;;;;;;;5035502;28;20040;-68
2020/12/14 06:43:34;;;;;;;18.08;10.35;;;;;;;;;;5035065;28;20060;-67
2020/12/14 06:46:04;;;;;;;26.45;11.25;;;;;;;;;;5034958;28;20032;-67
2020/12/14 06:48:36;;;;;;;23.30;11.93;;;;;;;;;;5035338;28;20025;-68
2020/12/14 06:51:03;;;;;;;20.35;10.20;;;;;;;;;;5035192;28;20037;-67
2020/12/14 06:53:44;;;;;;;23.63;12.70;;;;;;;;;;5034829;28;20024;-68
2020/12/14 06:56:13;;;;;;;18.15;11.85;;;;;;;;;;5034795;28;20390;-67
2020/12/14 06:58:41;;;;;;;19.30;11.73;;;;;;;;;;5033285;28;20048;-67
2020/12/14 07:01:26;;;;;;;20.45;12.65;;;;;;;;;;5034728;28;20029;-67
2020/12/14 07:03:52;;;;;;;22.10;12.27;;;;;;;;;;5035238;28;20356;-67
2020/12/14 07:06:26;;;;;;;19.05;10.85;;;;;;;;;;5034663;28;20562;-67
2020/12/14 07:08:52;;;;;;;18.80;10.02;;;;;;;;;;5034674;28;20025;-67
2020/12/14 07:11:20;;;;;;;19.35;12.35;;;;;;;;;;5034421;28;20036;-67
2020/12/14 07:13:47;;;;;;;17.77;10.00;;;;;;;;;;5034597;28;20057;-67
2020/12/14 07:16:13;;;;;;;23.33;13.20;;;;;;;;;;5034776;28;20025;-67
2020/12/14 07:18:40;;;;;;;19.88;12.15;;;;;;;;;;5034608;28;20117;-67
2020/12/14 07:21:14;;;;;;;23.02;14.70;;;;;;;;;;5034310;28;20049;-66
2020/12/14 07:23:41;;;;;;;19.10;12.05;;;;;;;;;;5034448;28;20025;-68
2020/12/14 07:26:08;;;;;;;20.60;11.15;;;;;;;;;;5034367;28;20029;-67
2020/12/14 07:28:47;;;;;;;15.50;9.02;;;;;;;;;;5034369;28;20057;-68
2020/12/14 07:31:21;;;;;;;17.80;10.55;;;;;;;;;;5038023;28;20021;-68
2020/12/14 07:33:53;;;;;;;17.38;8.18;;;;;;;;;;5033911;28;20478;-68
2020/12/14 07:36:20;;;;;;;19.17;9.05;;;;;;;;;;5034525;28;20025;-67
2020/12/14 07:38:50;;;;;;;24.45;9.95;;;;;;;;;;5031688;28;20344;-68
2020/12/14 07:41:16;;;;;;;17.58;11.02;;;;;;;;;;5033328;28;20036;-67
2020/12/14 07:43:46;;;;;;;19.88;10.10;;;;;;;;;;5034452;28;20033;-68
2020/12/14 07:46:19;;;;;;;19.35;11.27;;;;;;;;;;5037348;28;20398;-68
2020/12/14 07:48:55;;;;;;;18.13;10.68;;;;;;;;;;5033906;28;20049;-68
2020/12/14 07:51:22;;;;;;;27.27;10.70;;;;;;;;;;5033065;28;20474;-68
2020/12/14 07:53:51;;;;;;;18.63;9.23;;;;;;;;;;5034020;28;20490;-68
2020/12/14 07:56:17;;;;;;;17.58;9.30;;;;;;;;;;5033143;28;20035;-68
2020/12/14 07:58:44;;;;;;;16.10;8.52;;;;;;;;;;5033783;28;20125;-68
2020/12/14 08:01:14;;;;;;;19.23;8.90;;;;;;;;;;5033668;28;20470;-67
2020/12/14 08:03:40;;;;;;;16.60;8.68;;;;;;;;;;5034074;28;20029;-68
2020/12/14 08:06:16;;;;;;;15.48;8.65;;;;;;;;;;5033805;28;20108;-69
2020/12/14 08:08:47;;;;;;;16.73;7.93;;;;;;;;;;5033896;28;20029;-69
2020/12/14 08:11:13;;;;;;;17.90;8.40;;;;;;;;;;5033296;28;20382;-68
2020/12/14 08:13:40;;;;;;;16.00;8.02;;;;;;;;;;5032454;28;20033;-68
2020/12/14 08:16:06;;;;;;;21.55;8.70;;;;;;;;;;5033394;28;20033;-69
2020/12/14 08:18:34;;;;;;;14.15;8.70;;;;;;;;;;5033394;28;20046;-69
2020/12/14 08:21:00;;;;;;;14.82;9.60;;;;;;;;;;5033224;28;20100;-70
2020/12/14 08:23:30;;;;;;;16.48;7.07;;;;;;;;;;5033313;28;20037;-69
2020/12/14 08:25:57;;;;;;;12.65;6.85;;;;;;;;;;5033507;28;20470;-68
2020/12/14 08:28:36;;;;;;;15.65;6.28;;;;;;;;;;5033406;28;20022;-69
2020/12/14 08:31:06;;;;;;;20.42;6.97;;;;;;;;;;5033414;28;20048;-69
2020/12/14 08:33:33;;;;;;;18.45;7.07;;;;;;;;;;5033563;28;20417;-68
2020/12/14 08:36:08;;;;;;;14.02;6.93;;;;;;;;;;5033182;28;20116;-69
2020/12/14 08:38:35;;;;;;;15.50;7.00;;;;;;;;;;5033364;28;20478;-69
2020/12/14 08:41:02;;;;;;;17.35;7.68;;;;;;;;;;5033153;28;20026;-70
2020/12/14 08:43:29;;;;;;;17.35;8.23;;;;;;;;;;5033089;28;20026;-66
2020/12/14 08:45:56;;;;;;;23.08;8.60;;;;;;;;;;5033421;28;20470;-69
2020/12/14 08:48:22;;;;;;;14.38;8.25;;;;;;;;;;5031718;28;20025;-68
2020/12/14 08:50:48;;;;;;;19.35;8.98;;;;;;;;;;5032693;28;20108;-70
2020/12/14 08:53:23;;;;;;;17.15;8.52;;;;;;;;;;5032910;28;20017;-68
2020/12/14 08:55:49;;;;;;;14.30;8.20;;;;;;;;;;5032970;28;20033;-68
2020/12/14 08:58:15;;;;;;;21.83;9.98;;;;;;;;;;5032692;28;20029;-68
2020/12/14 09:00:41;;;;;;;17.92;8.13;;;;;;;;;;5032915;28;20018;-68
2020/12/14 09:03:07;;;;;;;18.23;7.22;;;;;;;;;;5033231;28;20045;-68
2020/12/14 09:05:34;;;;;;;12.40;7.00;;;;;;;;;;5032796;28;20018;-68
2020/12/14 09:08:13;;;;;;;15.52;7.35;;;;;;;;;;5032815;28;20472;-67
2020/12/14 09:10:39;;;;;;;15.55;9.05;;;;;;;;;;5032216;28;20029;-68
2020/12/14 09:13:05;;;;;;;11.65;7.55;;;;;;;;;;5032539;28;20422;-68
2020/12/14 09:15:32;;;;;;;21.75;11.30;;;;;;;;;;5033088;28;20032;-68
2020/12/14 09:18:05;;;;;;;17.92;6.10;;;;;;;;;;5032861;28;20386;-69
2020/12/14 09:20:32;;;;;;;13.95;7.43;;;;;;;;;;5032824;28;20068;-67
2020/12/14 09:22:58;;;;;;;22.77;8.45;;;;;;;;;;5032575;28;20389;-67
2020/12/14 09:25:24;;;;;;;17.00;7.97;;;;;;;;;;5032899;28;20068;-67
2020/12/14 09:27:50;;;;;;;33.03;15.40;;;;;;;;;;5032649;28;20021;-68
2020/12/14 09:30:16;;;;;;;36.00;20.73;;;;;;;;;;5032717;28;20057;-68
2020/12/14 09:32:42;;;;;;;51.75;27.77;;;;;;;;;;5032659;28;20033;-68
2020/12/14 09:35:08;;;;;;;51.97;27.42;;;;;;;;;;5032777;28;20429;-67
2020/12/14 09:37:34;;;;;;;18.55;10.80;;;;;;;;;;5032397;28;20025;-68
2020/12/14 09:40:04;;;;;;;24.08;11.55;;;;;;;;;;5032391;28;20041;-67
2020/12/14 09:42:30;;;;;;;18.95;8.82;;;;;;;;;;5032810;28;20409;-69
2020/12/14 09:44:56;;;;;;;15.90;8.02;;;;;;;;;;5032587;28;20025;-67
2020/12/14 09:47:23;;;;;;;18.35;6.78;;;;;;;;;;5032737;28;20390;-68
2020/12/14 09:49:49;;;;;;;12.75;4.93;;;;;;;;;;5032187;28;20037;-67
2020/12/14 09:52:15;;;;;;;17.27;6.90;;;;;;;;;;5030118;28;20021;-67
2020/12/14 09:54:41;;;;;;;11.63;5.78;;;;;;;;;;5030126;28;20035;-66
2020/12/14 09:57:07;;;;;;;11.85;5.55;;;;;;;;;;5032628;28;20021;-67
2020/12/14 09:59:33;;;;;;;12.05;5.20;;;;;;;;;;5031580;28;20064;-67
2020/12/14 10:01:59;;;;;;;24.67;5.10;;;;;;;;;;5033118;28;20029;-68
2020/12/14 10:04:26;;;;;;;10.68;4.43;;;;;;;;;;5036035;28;20375;-67
2020/12/14 10:06:52;;;;;;;19.23;4.82;;;;;;;;;;5036264;28;20022;-67
2020/12/14 10:09:18;;;;;;;14.63;3.80;;;;;;;;;;5035797;28;20029;-67
2020/12/14 10:11:44;;;;;;;16.38;5.25;;;;;;;;;;5036068;28;20053;-67
2020/12/14 10:14:10;;;;;;;17.05;4.03;;;;;;;;;;5031761;28;20104;-67
2020/12/14 10:16:36;;;;;;;11.68;3.35;;;;;;;;;;5035093;28;20029;-67
2020/12/14 10:19:03;;;;;;;17.77;4.47;;;;;;;;;;5034286;28;20394;-67
2020/12/14 10:21:29;;;;;;;13.35;4.10;;;;;;;;;;5034883;28;20453;-67
2020/12/14 10:23:55;;;;;;;13.27;2.90;;;;;;;;;;5034822;28;20471;-67
2020/12/14 10:26:22;;;;;;;9.95;3.17;;;;;;;;;;5035403;28;20033;-66
2020/12/14 10:28:48;;;;;;;5.82;1.88;;;;;;;;;;5035085;28;20104;-68
2020/12/14 10:31:14;;;;;;;16.17;5.45;;;;;;;;;;5035535;28;20025;-67
2020/12/14 10:33:45;;;;;;;25.02;4.53;;;;;;;;;;5035524;28;20364;-67
2020/12/14 10:36:12;;;;;;;9.57;2.30;;;;;;;;;;5033394;28;20037;-66
2020/12/14 10:38:38;;;;;;;9.88;2.97;;;;;;;;;;5031978;28;20080;-67
2020/12/14 10:41:04;;;;;;;10.18;3.28;;;;;;;;;;5032835;28;20029;-67
2020/12/14 10:43:31;;;;;;;11.65;2.95;;;;;;;;;;5033852;28;20033;-67
2020/12/14 10:45:57;;;;;;;11.40;3.20;;;;;;;;;;5035062;28;20032;-67
2020/12/14 10:48:23;;;;;;;12.40;4.13;;;;;;;;;;5034817;28;20036;-67
2020/12/14 10:50:49;;;;;;;18.13;3.90;;;;;;;;;;5035057;28;20026;-67
2020/12/14 10:53:15;;;;;;;8.50;2.95;;;;;;;;;;5034731;28;20534;-67
2020/12/14 10:55:42;;;;;;;8.23;3.00;;;;;;;;;;5033747;28;20025;-67
2020/12/14 10:58:08;;;;;;;6.88;2.88;;;;;;;;;;5034698;28;20072;-67
2020/12/14 11:00:35;;;;;;;9.38;2.20;;;;;;;;;;5034809;28;20037;-65
2020/12/14 11:03:01;;;;;;;6.18;3.35;;;;;;;;;;5034893;28;20021;-67
2020/12/14 11:05:27;;;;;;;7.38;2.60;;;;;;;;;;5034958;28;20108;-67
2020/12/14 11:07:54;;;;;;;11.38;2.90;;;;;;;;;;5034833;28;20026;-67
2020/12/14 11:10:21;;;;;;;8.27;2.75;;;;;;;;;;5034635;28;20026;-67
2020/12/14 11:12:47;;;;;;;7.53;2.10;;;;;;;;;;5034553;28;20053;-67
2020/12/14 11:15:13;;;;;;;4.28;1.90;;;;;;;;;;5033993;28;20024;-67
2020/12/14 11:17:39;;;;;;;5.85;2.22;;;;;;;;;;5034542;28;20041;-67
2020/12/14 11:20:06;;;;;;;9.77;2.10;;;;;;;;;;5034244;28;20393;-67
2020/12/14 11:22:32;;;;;;;7.88;2.05;;;;;;;;;;5034208;28;20443;-67
2020/12/14 11:24:59;;;;;;;10.10;2.22;;;;;;;;;;5034255;28;20097;-66
2020/12/14 11:27:25;;;;;;;15.30;2.30;;;;;;;;;;5034086;28;20382;-67
2020/12/14 11:29:52;;;;;;;3.92;1.80;;;;;;;;;;5034164;28;20029;-66
2020/12/14 11:32:18;;;;;;;6.85;2.28;;;;;;;;;;5026332;28;20478;-66
2020/12/14 11:34:44;;;;;;;10.73;2.10;;;;;;;;;;5034039;28;20026;-67
2020/12/14 11:37:10;;;;;;;13.15;3.33;;;;;;;;;;5034129;28;20029;-67
2020/12/14 11:39:36;;;;;;;9.98;2.95;;;;;;;;;;5033904;28;20041;-67
2020/12/14 11:42:03;;;;;;;11.50;2.78;;;;;;;;;;5034099;28;20025;-67
2020/12/14 11:44:29;;;;;;;6.70;2.20;;;;;;;;;;5028508;28;20022;-65
2020/12/14 11:46:55;;;;;;;11.35;3.55;;;;;;;;;;5032655;28;20120;-66
2020/12/14 11:49:21;;;;;;;19.85;4.43;;;;;;;;;;5033231;28;20133;-67
2020/12/14 11:51:48;;;;;;;13.90;3.15;;;;;;;;;;5032638;28;20025;-67
2020/12/14 11:54:14;;;;;;;5.10;2.42;;;;;;;;;;5032952;28;20029;-66
2020/12/14 11:56:40;;;;;;;15.65;2.08;;;;;;;;;;5032650;28;20025;-66
2020/12/14 11:59:06;;;;;;;7.72;2.28;;;;;;;;;;5033000;28;20034;-65
2020/12/14 12:01:33;;;;;;;11.60;2.30;;;;;;;;;;5032459;28;20033;-66
2020/12/14 12:03:59;;;;;;;9.52;1.80;;;;;;;;;;5032680;28;20021;-67
2020/12/14 12:06:29;;;;;;;12.02;2.08;;;;;;;;;;5029720;28;20025;-65
2020/12/14 12:08:55;;;;;;;11.93;1.70;;;;;;;;;;5014194;28;20049;-66
2020/12/14 12:11:22;;;;;;;10.73;1.75;;;;;;;;;;5013896;28;20068;-66
2020/12/14 12:13:48;;;;;;;4.32;1.73;;;;;;;;;;5026433;28;20026;-67
2020/12/14 12:16:14;;;;;;;5.78;1.77;;;;;;;;;;5033696;28;20083;-66
2020/12/14 12:18:40;;;;;;;14.32;4.03;;;;;;;;;;5033536;28;20055;-67
2020/12/14 12:21:07;;;;;;;9.38;4.63;;;;;;;;;;5033352;28;20053;-67
2020/12/14 12:23:33;;;;;;;5.55;2.15;;;;;;;;;;5032910;28;20071;-67
2020/12/14 12:25:59;;;;;;;12.23;2.90;;;;;;;;;;5032775;28;20049;-67
2020/12/14 12:28:25;;;;;;;5.47;2.65;;;;;;;;;;5033335;28;20026;-67
2020/12/14 12:30:51;;;;;;;13.27;7.55;;;;;;;;;;5031337;28;20436;-67
2020/12/14 12:33:17;;;;;;;11.82;6.90;;;;;;;;;;5032678;28;20061;-66
2020/12/14 12:35:43;;;;;;;12.63;3.58;;;;;;;;;;5030696;28;20033;-67
2020/12/14 12:38:10;;;;;;;8.60;2.28;;;;;;;;;;5032584;28;20033;-67
2020/12/14 12:40:40;;;;;;;6.60;1.63;;;;;;;;;;5027715;28;20487;-67
2020/12/14 12:43:06;;;;;;;5.28;1.70;;;;;;;;;;5013497;28;20030;-68
2020/12/14 12:45:32;;;;;;;13.32;2.05;;;;;;;;;;5018342;28;20615;-67
2020/12/14 12:47:58;;;;;;;4.03;1.50;;;;;;;;;;5029484;28;20382;-67
2020/12/14 12:50:24;;;;;;;8.48;1.67;;;;;;;;;;5033336;28;20036;-67
2020/12/14 12:52:51;;;;;;;6.55;1.65;;;;;;;;;;5022740;28;20100;-68
2020/12/14 12:55:17;;;;;;;16.80;3.03;;;;;;;;;;5013261;28;20065;-68
2020/12/14 12:57:43;;;;;;;4.15;1.40;;;;;;;;;;5013432;28;20029;-68
2020/12/14 13:00:09;;;;;;;11.07;2.08;;;;;;;;;;5014723;28;20558;-67
2020/12/14 13:02:35;;;;;;;3.08;1.33;;;;;;;;;;5013558;28;20030;-66
2020/12/14 13:05:01;;;;;;;6.15;1.75;;;;;;;;;;5013481;28;20410;-66
2020/12/14 13:07:27;;;;;;;6.25;1.50;;;;;;;;;;5013261;28;20096;-68
2020/12/14 13:09:54;;;;;;;6.90;1.38;;;;;;;;;;5013177;28;20026;-68
2020/12/14 13:12:22;;;;;;;17.63;1.70;;;;;;;;;;5012972;28;20026;-66
2020/12/14 13:14:49;;;;;;;11.27;1.52;;;;;;;;;;5013485;28;20026;-66
2020/12/14 13:17:15;;;;;;;5.18;1.30;;;;;;;;;;5012923;28;20483;-66
2020/12/14 13:19:41;;;;;;;2.88;1.25;;;;;;;;;;5011644;28;20048;-67
2020/12/14 13:22:07;;;;;;;5.18;1.30;;;;;;;;;;5017516;28;20459;-67
2020/12/14 13:24:34;;;;;;;5.20;1.30;;;;;;;;;;5031174;28;20026;-68
2020/12/14 13:27:00;;;;;;;9.52;1.55;;;;;;;;;;5032661;28;20029;-67
2020/12/14 13:29:26;;;;;;;6.75;1.15;;;;;;;;;;5032704;28;20033;-67
2020/12/14 13:31:52;;;;;;;14.88;1.80;;;;;;;;;;5032587;28;20018;-67
2020/12/14 13:34:18;;;;;;;9.10;1.67;;;;;;;;;;5029413;28;20035;-67
2020/12/14 13:36:44;;;;;;;4.43;1.33;;;;;;;;;;5013037;28;20022;-68
2020/12/14 13:39:11;;;;;;;11.27;1.65;;;;;;;;;;5016646;28;20041;-67
2020/12/14 13:41:37;;;;;;;6.80;1.90;;;;;;;;;;5016558;28;20501;-67
2020/12/14 13:44:03;;;;;;;13.02;2.13;;;;;;;;;;5016569;28;20475;-66
2020/12/14 13:46:29;;;;;;;12.88;1.95;;;;;;;;;;5016570;28;20084;-67
2020/12/14 13:48:55;;;;;;;13.68;2.13;;;;;;;;;;5016796;28;20030;-67
2020/12/14 13:51:24;;;;;;;8.43;1.80;;;;;;;;;;5016372;28;20577;-67
2020/12/14 13:53:50;;;;;;;10.73;2.60;;;;;;;;;;5016416;28;20084;-67
2020/12/14 13:56:16;;;;;;;10.13;2.90;;;;;;;;;;5016495;28;20034;-64
2020/12/14 13:58:42;;;;;;;14.25;3.25;;;;;;;;;;5016275;28;20105;-67
2020/12/14 14:01:14;;;;;;;13.20;2.75;;;;;;;;;;5016335;28;20038;-67
2020/12/14 14:03:40;;;;;;;20.08;4.68;;;;;;;;;;5016387;28;20057;-67
2020/12/14 14:06:09;;;;;;;27.27;4.75;;;;;;;;;;5016180;28;20030;-67
2020/12/14 14:08:36;;;;;;;10.82;3.50;;;;;;;;;;5016299;28;20033;-67
2020/12/14 14:11:02;;;;;;;8.98;3.08;;;;;;;;;;5016202;28;20045;-66
2020/12/14 14:13:28;;;;;;;14.55;3.63;;;;;;;;;;5016132;28;20025;-67
2020/12/14 14:15:54;;;;;;;12.13;3.00;;;;;;;;;;5016238;28;20493;-67
2020/12/14 14:18:20;;;;;;;14.07;4.10;;;;;;;;;;5015938;28;20030;-67
2020/12/14 14:20:49;;;;;;;12.55;4.22;;;;;;;;;;5015959;28;20050;-67
2020/12/14 14:23:16;;;;;;;15.07;4.45;;;;;;;;;;5016182;28;20038;-67
2020/12/14 14:25:43;;;;;;;20.05;7.25;;;;;;;;;;5015927;28;20076;-67
2020/12/14 14:28:09;;;;;;;18.95;5.10;;;;;;;;;;5016164;28;20022;-67